Time;durP1;ratioP1;P1;durP2;ratioP2;P2;SDS_P1;SDS_P2;PMS_P1;PMS_P2;Temp;Humidity;BMP_temperature;BMP_pressure;BME280_temperature;BME280_humidity;BME280_pressure;Samples;Min_cycle;Max_cycle;Signal;HPM_P1;HPM_P2
2023/06/30 16:14:35;;;;;;;76.78;20.08;;;;;;;;;;5046373;28;20397;-56
2023/06/30 16:17:00;;;;;;;80.65;22.55;;;;;;;;;;5013148;28;20042;-58
2023/06/30 16:19:25;;;;;;;101.13;25.73;;;;;;;;;;5005906;28;20021;-58
2023/06/30 16:21:50;;;;;;;80.30;22.83;;;;;;;;;;5008765;28;20281;-59
2023/06/30 16:24:17;;;;;;;107.90;26.23;;;;;;;;;;5008930;28;20025;-57
2023/06/30 16:26:43;;;;;;;83.07;22.48;;;;;;;;;;5012269;28;20898;-58
2023/06/30 16:29:08;;;;;;;74.40;22.33;;;;;;;;;;5007152;28;20518;-57
2023/06/30 16:31:33;;;;;;;90.27;23.20;;;;;;;;;;5011726;28;20045;-56
2023/06/30 16:34:01;;;;;;;65.80;22.17;;;;;;;;;;5005430;28;20555;-55
2023/06/30 16:36:26;;;;;;;106.18;26.00;;;;;;;;;;5004663;28;20273;-55
2023/06/30 16:38:52;;;;;;;83.83;21.43;;;;;;;;;;5008718;28;20092;-55
2023/06/30 16:41:17;;;;;;;98.28;23.55;;;;;;;;;;5012571;28;20030;-55
2023/06/30 16:43:42;;;;;;;59.22;16.50;;;;;;;;;;5020263;28;20103;-55
2023/06/30 16:46:07;;;;;;;82.27;21.60;;;;;;;;;;5018202;28;20392;-55
2023/06/30 16:48:33;;;;;;;68.90;20.37;;;;;;;;;;5018238;28;20256;-55
2023/06/30 16:50:58;;;;;;;81.28;24.42;;;;;;;;;;5026996;28;20176;-55
2023/06/30 16:53:23;;;;;;;393.97;248.60;;;;;;;;;;5013371;28;20595;-53
2023/06/30 16:55:48;;;;;;;83.77;23.43;;;;;;;;;;5016955;28;20269;-54
2023/06/30 16:58:14;;;;;;;93.80;23.25;;;;;;;;;;5018224;28;20276;-56
2023/06/30 17:00:39;;;;;;;168.95;79.35;;;;;;;;;;5018122;28;20121;-54
2023/06/30 17:03:04;;;;;;;79.43;19.40;;;;;;;;;;5020305;28;20018;-54
2023/06/30 17:05:29;;;;;;;67.57;16.87;;;;;;;;;;5020628;28;20091;-53
2023/06/30 17:07:55;;;;;;;69.47;19.03;;;;;;;;;;5020532;28;20336;-54
2023/06/30 17:10:20;;;;;;;105.80;23.57;;;;;;;;;;5017471;28;20287;-54
2023/06/30 17:12:45;;;;;;;64.87;19.43;;;;;;;;;;5020356;28;20287;-55
2023/06/30 17:15:10;;;;;;;92.00;21.43;;;;;;;;;;5018985;28;20280;-53
2023/06/30 17:17:36;;;;;;;66.40;18.67;;;;;;;;;;5017617;28;20256;-54
2023/06/30 17:20:03;;;;;;;66.50;18.55;;;;;;;;;;5019638;28;20013;-54
2023/06/30 17:22:28;;;;;;;98.97;21.15;;;;;;;;;;5017207;28;20034;-57
2023/06/30 17:24:53;;;;;;;72.93;18.30;;;;;;;;;;5013182;28;20025;-57
2023/06/30 17:27:19;;;;;;;110.73;22.40;;;;;;;;;;4994889;28;20268;-57
2023/06/30 17:29:45;;;;;;;85.10;20.17;;;;;;;;;;4999270;28;20028;-55
2023/06/30 17:32:10;;;;;;;74.78;19.95;;;;;;;;;;5003604;28;20535;-55
2023/06/30 17:34:35;;;;;;;79.80;20.55;;;;;;;;;;5006612;28;20472;-57
2023/06/30 17:37:01;;;;;;;76.70;21.10;;;;;;;;;;5005421;28;20498;-56
2023/06/30 17:39:27;;;;;;;101.82;23.02;;;;;;;;;;5006442;28;20263;-56
2023/06/30 17:41:52;;;;;;;83.57;20.50;;;;;;;;;;5009091;28;20037;-56
2023/06/30 17:44:19;;;;;;;115.87;23.77;;;;;;;;;;5004560;28;20153;-57
2023/06/30 17:46:44;;;;;;;76.75;20.77;;;;;;;;;;5008713;28;20043;-55
2023/06/30 17:49:22;;;;;;;79.53;20.98;;;;;;;;;;5005076;28;20017;-55
2023/06/30 17:51:47;;;;;;;68.13;20.17;;;;;;;;;;5004917;28;20247;-56
2023/06/30 17:54:13;;;;;;;65.50;21.13;;;;;;;;;;5006417;28;20027;-55
2023/06/30 17:56:38;;;;;;;71.43;20.58;;;;;;;;;;5000687;28;20034;-55
2023/06/30 17:59:03;;;;;;;69.22;21.90;;;;;;;;;;5006642;28;20025;-56
2023/06/30 18:01:28;;;;;;;88.97;22.10;;;;;;;;;;5004173;28;20040;-56
2023/06/30 18:03:54;;;;;;;77.45;23.25;;;;;;;;;;5004699;28;20264;-55
2023/06/30 18:06:19;;;;;;;111.07;28.00;;;;;;;;;;5002377;28;20386;-56
2023/06/30 18:08:44;;;;;;;69.27;23.90;;;;;;;;;;5004498;28;20312;-56
2023/06/30 18:11:09;;;;;;;83.13;24.80;;;;;;;;;;5003924;28;20030;-56
2023/06/30 18:13:37;;;;;;;82.13;22.97;;;;;;;;;;5004398;28;20517;-56
2023/06/30 18:16:06;;;;;;;82.78;24.10;;;;;;;;;;5003440;28;20030;-55
2023/06/30 18:18:31;;;;;;;118.75;27.15;;;;;;;;;;5003451;28;20471;-56
2023/06/30 18:20:57;;;;;;;88.32;23.85;;;;;;;;;;5005717;28;20026;-57
2023/06/30 18:23:22;;;;;;;108.55;26.23;;;;;;;;;;5005006;28;20026;-54
2023/06/30 18:25:47;;;;;;;96.10;25.50;;;;;;;;;;5005056;28;20128;-55
2023/06/30 18:28:12;;;;;;;105.53;26.93;;;;;;;;;;5005573;28;20018;-54
2023/06/30 18:30:38;;;;;;;68.53;23.33;;;;;;;;;;5003112;28;20338;-55
2023/06/30 18:33:03;;;;;;;92.03;25.17;;;;;;;;;;5003089;28;20287;-55
2023/06/30 18:35:28;;;;;;;132.03;29.43;;;;;;;;;;5002386;28;20076;-55
2023/06/30 18:37:53;;;;;;;83.50;24.15;;;;;;;;;;5003995;28;20225;-55
2023/06/30 18:40:19;;;;;;;106.90;25.90;;;;;;;;;;5002790;28;20026;-54
2023/06/30 18:42:44;;;;;;;94.73;24.57;;;;;;;;;;5004967;28;20014;-54
2023/06/30 18:45:09;;;;;;;86.35;24.25;;;;;;;;;;5004037;28;20647;-54
2023/06/30 18:47:35;;;;;;;129.70;27.58;;;;;;;;;;5003792;28;20025;-55
2023/06/30 18:50:00;;;;;;;75.80;21.63;;;;;;;;;;5007261;28;20025;-54
2023/06/30 18:52:25;;;;;;;108.10;26.23;;;;;;;;;;5002504;28;20291;-55
2023/06/30 18:54:50;;;;;;;105.57;24.77;;;;;;;;;;5003650;28;20264;-55
2023/06/30 18:57:15;;;;;;;85.72;23.40;;;;;;;;;;5002050;28;20044;-54
2023/06/30 18:59:43;;;;;;;86.90;23.13;;;;;;;;;;5004446;28;20033;-55
2023/06/30 19:02:08;;;;;;;85.03;22.00;;;;;;;;;;5005256;28;20728;-54
2023/06/30 19:04:33;;;;;;;118.00;25.23;;;;;;;;;;5004342;28;20575;-54
2023/06/30 19:06:59;;;;;;;76.43;21.52;;;;;;;;;;5005273;28;20513;-55
2023/06/30 19:09:24;;;;;;;114.93;24.03;;;;;;;;;;5004256;28;20037;-55
2023/06/30 19:11:49;;;;;;;80.68;20.90;;;;;;;;;;5005549;28;20280;-55
2023/06/30 19:14:14;;;;;;;83.10;22.30;;;;;;;;;;5006032;28;20087;-55
2023/06/30 19:16:40;;;;;;;78.13;22.40;;;;;;;;;;5002202;28;20265;-55
2023/06/30 19:19:05;;;;;;;77.40;22.55;;;;;;;;;;5006540;28;20787;-55
2023/06/30 19:21:30;;;;;;;117.13;24.03;;;;;;;;;;5006108;28;20067;-56
2023/06/30 19:23:58;;;;;;;85.95;22.75;;;;;;;;;;5003268;28;20268;-55
2023/06/30 19:26:23;;;;;;;119.95;24.65;;;;;;;;;;5001847;28;20057;-55
2023/06/30 19:28:48;;;;;;;73.55;21.42;;;;;;;;;;5004772;28;20141;-55
2023/06/30 19:31:14;;;;;;;100.20;22.60;;;;;;;;;;5002217;28;20030;-55
2023/06/30 19:33:39;;;;;;;78.23;21.63;;;;;;;;;;5004163;28;20056;-54
2023/06/30 19:36:04;;;;;;;89.63;21.47;;;;;;;;;;5002472;28;20261;-54
2023/06/30 19:38:30;;;;;;;106.40;24.20;;;;;;;;;;5000619;28;20319;-55
2023/06/30 19:40:55;;;;;;;82.43;21.20;;;;;;;;;;5003850;28;20029;-54
2023/06/30 19:43:21;;;;;;;87.70;21.55;;;;;;;;;;5000775;28;20719;-54
2023/06/30 19:45:46;;;;;;;96.63;23.35;;;;;;;;;;5003175;28;20124;-53
2023/06/30 19:48:12;;;;;;;81.22;21.45;;;;;;;;;;5002854;28;20091;-53
2023/06/30 19:50:37;;;;;;;112.97;25.20;;;;;;;;;;5001094;28;20300;-55
2023/06/30 19:53:02;;;;;;;90.35;21.67;;;;;;;;;;5002552;28;20079;-53
2023/06/30 19:55:32;;;;;;;121.32;25.55;;;;;;;;;;5001668;28;20034;-54
2023/06/30 19:57:57;;;;;;;81.45;21.40;;;;;;;;;;5002001;28;20575;-53
2023/06/30 20:00:22;;;;;;;97.47;23.13;;;;;;;;;;5003932;28;20091;-55
2023/06/30 20:02:47;;;;;;;81.67;21.23;;;;;;;;;;5002662;28;20272;-55
2023/06/30 20:05:12;;;;;;;84.70;21.25;;;;;;;;;;5002532;28;20603;-55
2023/06/30 20:07:38;;;;;;;126.30;25.13;;;;;;;;;;5001106;28;20064;-54
2023/06/30 20:10:04;;;;;;;64.97;20.67;;;;;;;;;;5004704;28;20070;-55
2023/06/30 20:12:29;;;;;;;114.53;25.08;;;;;;;;;;5001325;28;20836;-55
2023/06/30 20:14:56;;;;;;;114.80;23.77;;;;;;;;;;5003560;28;20137;-54
2023/06/30 20:17:21;;;;;;;79.05;22.23;;;;;;;;;;5001415;28;20273;-54
2023/06/30 20:19:48;;;;;;;80.47;21.65;;;;;;;;;;5000999;28;20033;-53
2023/06/30 20:22:13;;;;;;;86.00;22.80;;;;;;;;;;4999854;28;20034;-53
2023/06/30 20:24:39;;;;;;;141.18;26.17;;;;;;;;;;5001188;28;20028;-54
2023/06/30 20:27:04;;;;;;;64.82;19.77;;;;;;;;;;5001051;28;20037;-53
2023/06/30 20:29:29;;;;;;;131.75;25.17;;;;;;;;;;5001142;28;20365;-54
2023/06/30 20:31:55;;;;;;;66.55;19.05;;;;;;;;;;5004222;28;20343;-55
2023/06/30 20:34:20;;;;;;;65.67;18.13;;;;;;;;;;5003193;28;20030;-54
2023/06/30 20:36:45;;;;;;;94.93;21.63;;;;;;;;;;5001058;28;20029;-57
2023/06/30 20:39:10;;;;;;;78.60;22.00;;;;;;;;;;5003521;28;20026;-55
2023/06/30 20:41:36;;;;;;;114.53;22.55;;;;;;;;;;5003115;28;20358;-54
2023/06/30 20:44:01;;;;;;;87.70;21.10;;;;;;;;;;5003145;28;20395;-55
2023/06/30 20:46:26;;;;;;;101.30;22.00;;;;;;;;;;5002102;28;20386;-55
2023/06/30 20:48:51;;;;;;;70.00;19.10;;;;;;;;;;5003507;28;20272;-55
2023/06/30 20:51:17;;;;;;;74.43;18.40;;;;;;;;;;5001913;28;20048;-55
2023/06/30 20:53:42;;;;;;;96.25;18.25;;;;;;;;;;5002088;28;20148;-56
2023/06/30 20:56:07;;;;;;;65.57;16.25;;;;;;;;;;5002341;28;20037;-56
2023/06/30 20:58:32;;;;;;;96.67;17.97;;;;;;;;;;5002637;28;20052;-56
2023/06/30 21:00:58;;;;;;;61.70;15.10;;;;;;;;;;5006070;28;20057;-55
2023/06/30 21:03:23;;;;;;;68.45;15.70;;;;;;;;;;5007026;28;20283;-54
2023/06/30 21:05:48;;;;;;;93.47;17.33;;;;;;;;;;5001764;28;20049;-55
2023/06/30 21:08:13;;;;;;;61.57;14.77;;;;;;;;;;5007941;28;20733;-54
2023/06/30 21:10:38;;;;;;;103.60;17.63;;;;;;;;;;5007469;28;20355;-54
2023/06/30 21:13:04;;;;;;;74.37;14.83;;;;;;;;;;5006740;28;20281;-56
2023/06/30 21:15:29;;;;;;;91.60;16.45;;;;;;;;;;5007052;28;20268;-54
2023/06/30 21:17:54;;;;;;;59.80;14.27;;;;;;;;;;5006595;28;20109;-54
2023/06/30 21:20:20;;;;;;;73.60;14.40;;;;;;;;;;5005948;28;20036;-54
2023/06/30 21:22:45;;;;;;;65.15;13.25;;;;;;;;;;5007523;28;21528;-55
